Time;durP1;ratioP1;P1;durP2;ratioP2;P2;SDS_P1;SDS_P2;PMS_P1;PMS_P2;Temp;Humidity;BMP_temperature;BMP_pressure;BME280_temperature;BME280_humidity;BME280_pressure;Samples;Min_cycle;Max_cycle;Signal;HPM_P1;HPM_P2
2022/02/04 00:09:48;;;;;;;49.55;30.42;;;;;;;5.53;100.00;100800.19;4919973;29;20635;-77
2022/02/04 00:20:39;;;;;;;52.13;30.95;;;;;;;5.47;100.00;100797.09;4912626;29;20042;-78
2022/02/04 00:23:15;;;;;;;53.42;31.52;;;;;;;5.48;100.00;100800.50;4923686;29;20054;-78
2022/02/04 00:28:23;;;;;;;56.92;33.13;;;;;;;5.46;100.00;100803.25;4935590;29;20043;-76
2022/02/04 00:31:02;;;;;;;56.42;32.28;;;;;;;5.40;100.00;100787.25;4934846;29;20120;-77
2022/02/04 00:33:31;;;;;;;57.10;32.92;;;;;;;5.34;100.00;100790.31;4908336;29;20070;-78
2022/02/04 00:36:05;;;;;;;54.83;32.45;;;;;;;5.37;100.00;100798.72;4915829;29;20103;-76
2022/02/04 00:38:35;;;;;;;58.00;33.42;;;;;;;5.36;100.00;100802.25;4909988;29;20040;-77
2022/02/04 00:41:07;;;;;;;56.75;33.28;;;;;;;5.37;100.00;100790.91;4935531;29;20565;-77
2022/02/04 00:43:33;;;;;;;57.05;33.03;;;;;;;5.39;100.00;100807.22;4936786;29;20067;-76
2022/02/04 00:46:11;;;;;;;59.83;33.85;;;;;;;5.40;100.00;100800.25;4902268;29;20043;-76
2022/02/04 00:53:48;;;;;;;;;;;;;;;5.41;100.00;100781.13;4925091;29;20505;-77
2022/02/04 01:26:14;;;;;;;70.35;35.80;;;;;;;5.21;100.00;100795.56;4933453;29;20035;-76
2022/02/04 01:28:42;;;;;;;75.75;36.60;;;;;;;5.24;100.00;100795.34;4933660;29;20090;-75
2022/02/04 01:31:11;;;;;;;74.80;37.03;;;;;;;5.25;100.00;100789.19;4924895;29;20118;-77
2022/02/04 01:33:37;;;;;;;72.65;36.85;;;;;;;5.31;100.00;100791.34;4927036;29;20091;-77
2022/02/04 01:36:04;;;;;;;71.20;36.30;;;;;;;5.32;100.00;100800.00;4915366;29;20047;-76
2022/02/04 01:38:36;;;;;;;66.80;34.47;;;;;;;5.17;100.00;100783.72;4923308;29;20027;-76
2022/02/04 01:41:04;;;;;;;70.28;34.92;;;;;;;5.29;100.00;100787.19;4916689;29;20038;-77
2022/02/04 01:43:29;;;;;;;67.80;34.17;;;;;;;5.28;100.00;100785.56;4915653;29;20040;-77
2022/02/04 01:45:58;;;;;;;70.20;35.55;;;;;;;5.19;100.00;100767.06;4918734;29;20071;-76
2022/02/04 01:48:25;;;;;;;68.63;34.53;;;;;;;5.33;100.00;100794.69;4910308;29;20040;-77
2022/02/04 01:50:52;;;;;;;68.10;35.40;;;;;;;5.36;100.00;100783.22;4934717;29;20083;-77
2022/02/04 01:53:21;;;;;;;67.18;34.88;;;;;;;5.34;100.00;100790.31;4917206;29;20039;-77
2022/02/04 01:55:48;;;;;;;66.75;35.63;;;;;;;5.25;100.00;100779.63;4933288;29;20043;-77
2022/02/04 01:58:15;;;;;;;68.90;35.50;;;;;;;5.35;100.00;100781.53;4911458;29;20172;-77
2022/02/04 02:00:41;;;;;;;67.13;35.00;;;;;;;5.34;100.00;100778.13;4932701;29;20122;-77
2022/02/04 02:03:08;;;;;;;70.07;35.58;;;;;;;5.36;100.00;100780.63;4928818;29;20060;-76
2022/02/04 02:05:34;;;;;;;73.28;34.80;;;;;;;5.38;100.00;100773.53;4932141;29;20066;-78
2022/02/04 02:08:07;;;;;;;68.20;34.92;;;;;;;5.43;100.00;100781.84;4932908;29;20036;-76
2022/02/04 02:10:33;;;;;;;72.38;36.70;;;;;;;5.40;100.00;100777.66;4942331;29;20455;-77
2022/02/04 02:48:22;;;;;;;81.40;41.58;;;;;;;5.46;100.00;100758.19;4949249;28;20489;-76
2022/02/04 02:56:41;;;;;;;85.13;43.53;;;;;;;5.37;100.00;100758.84;4912279;29;20047;-76
2022/02/04 02:59:14;;;;;;;77.63;40.00;;;;;;;5.37;100.00;100756.25;4936823;29;20035;-76
2022/02/04 03:01:45;;;;;;;86.68;43.03;;;;;;;5.42;100.00;100757.56;4915035;29;20039;-77
2022/02/04 03:04:14;;;;;;;88.00;44.50;;;;;;;5.48;100.00;100753.69;4935401;29;20070;-76
2022/02/04 03:06:41;;;;;;;78.80;42.70;;;;;;;5.53;100.00;100750.75;4918739;28;20040;-77
2022/02/04 03:09:07;;;;;;;84.85;43.83;;;;;;;5.48;100.00;100740.69;4935226;29;20054;-76
2022/02/04 03:11:33;;;;;;;89.72;45.85;;;;;;;5.42;100.00;100726.34;4937329;29;20031;-77
2022/02/04 03:14:00;;;;;;;86.68;45.60;;;;;;;5.47;100.00;100747.66;4918796;29;20046;-77
2022/02/04 03:16:26;;;;;;;94.00;45.13;;;;;;;5.42;100.00;100736.75;4920275;29;20039;-78
2022/02/04 03:18:54;;;;;;;86.18;44.90;;;;;;;5.50;100.00;100738.81;4935524;29;20043;-77
2022/02/04 03:21:26;;;;;;;85.90;45.13;;;;;;;5.47;100.00;100739.84;4935617;29;20123;-77
2022/02/04 03:23:57;;;;;;;89.78;47.10;;;;;;;5.46;100.00;100724.34;4919748;29;20048;-77
2022/02/04 03:26:42;;;;;;;92.13;46.13;;;;;;;5.42;100.00;100735.94;4934146;29;20032;-76
2022/02/04 03:29:07;;;;;;;89.00;45.13;;;;;;;5.49;100.00;100733.72;4936268;29;20569;-77
2022/02/04 03:31:40;;;;;;;92.82;47.10;;;;;;;5.54;100.00;100729.00;4938797;29;20123;-77
2022/02/04 03:34:05;;;;;;;89.13;46.00;;;;;;;5.48;100.00;100727.66;4918930;29;20405;-76
2022/02/04 03:36:31;;;;;;;86.95;45.95;;;;;;;5.46;100.00;100725.22;4917468;29;20321;-77
2022/02/04 03:38:57;;;;;;;94.20;48.25;;;;;;;5.36;100.00;100708.59;4917435;29;20056;-78
2022/02/04 03:41:22;;;;;;;89.88;46.17;;;;;;;5.40;100.00;100709.22;4934154;29;20050;-76
2022/02/04 03:43:48;;;;;;;85.90;45.47;;;;;;;5.41;100.00;100713.47;4918552;29;20117;-76
2022/02/04 03:46:13;;;;;;;87.60;46.33;;;;;;;5.42;100.00;100715.13;4932747;29;20031;-77
2022/02/04 03:48:39;;;;;;;88.97;45.75;;;;;;;5.43;100.00;100717.63;4916124;29;20476;-76
2022/02/04 03:51:04;;;;;;;85.18;44.17;;;;;;;5.43;100.00;100715.00;4933788;29;20095;-77
2022/02/04 03:53:30;;;;;;;81.43;43.55;;;;;;;5.43;100.00;100717.63;4934245;29;20039;-77
2022/02/04 03:55:55;;;;;;;83.75;44.92;;;;;;;5.41;100.00;100706.50;4915677;29;20277;-76
2022/02/04 03:58:21;;;;;;;84.53;44.63;;;;;;;5.45;100.00;100704.50;4927568;29;20095;-76
2022/02/04 04:00:47;;;;;;;79.82;41.80;;;;;;;5.41;100.00;100703.91;4929528;29;20036;-77
2022/02/04 04:03:13;;;;;;;81.75;44.40;;;;;;;5.42;100.00;100699.50;4933418;29;20123;-76
2022/02/04 04:05:44;;;;;;;81.53;43.65;;;;;;;5.44;100.00;100702.84;4918543;29;20042;-77
2022/02/04 04:08:11;;;;;;;80.13;42.13;;;;;;;5.42;100.00;100702.94;4948633;28;20180;-77
2022/02/04 04:10:40;;;;;;;83.80;43.38;;;;;;;5.38;100.00;100703.28;4933692;29;20709;-77
2022/02/04 04:13:06;;;;;;;79.35;41.53;;;;;;;5.41;100.00;100700.47;4932406;29;20462;-77
2022/02/04 04:15:32;;;;;;;76.20;41.58;;;;;;;5.37;100.00;100697.28;4916833;29;20391;-77
2022/02/04 04:17:58;;;;;;;80.13;43.10;;;;;;;5.40;100.00;100701.41;4910044;29;20042;-75
2022/02/04 04:20:25;;;;;;;76.82;41.03;;;;;;;5.43;100.00;100698.59;4933073;29;20083;-77
2022/02/04 04:22:53;;;;;;;81.53;41.40;;;;;;;5.40;100.00;100698.81;4933958;29;20059;-77
2022/02/04 04:25:19;;;;;;;79.10;41.08;;;;;;;5.31;100.00;100692.50;4920135;29;20036;-76
2022/02/04 04:27:46;;;;;;;83.47;42.72;;;;;;;5.38;100.00;100700.69;4933255;29;20039;-77
2022/02/04 04:30:14;;;;;;;76.60;39.90;;;;;;;5.47;100.00;100702.63;4917403;29;20045;-76
2022/02/04 04:32:40;;;;;;;78.72;40.53;;;;;;;5.38;100.00;100698.09;4933766;29;20047;-77
2022/02/04 04:35:11;;;;;;;82.95;41.47;;;;;;;5.36;100.00;100699.97;4933428;29;20039;-77
2022/02/04 04:43:15;;;;;;;76.38;41.08;;;;;;;5.35;100.00;100690.50;4934959;29;20044;-77
2022/02/04 05:29:20;;;;;;;65.13;34.17;;;;;;;5.23;100.00;100654.06;4933632;29;20091;-77
2022/02/04 05:31:46;;;;;;;62.83;33.92;;;;;;;5.31;100.00;100648.28;4929746;29;20039;-77
2022/02/04 05:34:19;;;;;;;62.80;32.85;;;;;;;5.31;100.00;100647.47;4933400;29;20039;-76
2022/02/04 05:36:47;;;;;;;60.47;33.42;;;;;;;5.24;100.00;100645.34;4913589;29;20414;-75
2022/02/04 05:39:23;;;;;;;64.55;33.50;;;;;;;5.26;100.00;100647.81;4930322;29;20039;-76
2022/02/04 05:41:50;;;;;;;60.78;33.00;;;;;;;5.18;100.00;100637.16;4914761;29;20038;-77
2022/02/04 05:44:17;;;;;;;63.10;33.35;;;;;;;5.25;100.00;100643.56;4926930;29;20039;-77
2022/02/04 05:46:57;;;;;;;59.80;32.05;;;;;;;5.24;100.00;100641.91;4917656;29;20031;-78
2022/02/04 05:49:27;;;;;;;59.00;33.80;;;;;;;5.22;100.00;100633.41;4933369;29;20175;-76
2022/02/04 05:54:40;;;;;;;56.70;32.25;;;;;;;5.21;100.00;100623.94;4932547;29;20039;-75
2022/02/04 05:57:18;;;;;;;56.42;30.30;;;;;;;5.27;100.00;100623.47;4954808;28;20076;-77
2022/02/04 06:00:13;;;;;;;57.53;31.23;;;;;;;5.25;100.00;100622.75;4951306;28;20032;-77
2022/02/04 06:05:18;;;;;;;57.35;31.77;;;;;;;5.28;100.00;100619.94;4930951;28;20138;-77
2022/02/04 06:11:00;;;;;;;55.75;30.42;;;;;;;5.20;100.00;100609.28;4932975;29;20398;-76
2022/02/04 06:23:57;;;;;;;58.58;31.83;;;;;;;5.24;100.00;100589.91;4929730;29;20435;-76
2022/02/04 06:26:22;;;;;;;59.05;31.80;;;;;;;5.29;100.00;100599.94;4919214;29;20052;-77
2022/02/04 06:28:48;;;;;;;59.40;32.83;;;;;;;5.20;100.00;100594.50;4917926;29;20036;-76
2022/02/04 06:31:14;;;;;;;58.85;31.73;;;;;;;5.23;100.00;100591.66;4907180;29;20047;-75
2022/02/04 06:33:40;;;;;;;61.65;32.80;;;;;;;5.31;100.00;100595.44;4928246;29;20042;-75
2022/02/04 06:36:06;;;;;;;55.08;32.78;;;;;;;5.34;100.00;100596.03;4957287;28;20043;-75
2022/02/04 06:38:31;;;;;;;61.50;33.28;;;;;;;5.33;100.00;100590.97;4942046;29;20062;-75
2022/02/04 06:40:57;;;;;;;61.40;33.25;;;;;;;5.29;100.00;100584.34;4925393;29;20047;-76
2022/02/04 06:43:22;;;;;;;54.28;32.30;;;;;;;5.35;100.00;100589.06;4924803;29;20047;-75
2022/02/04 06:45:48;;;;;;;56.38;32.28;;;;;;;5.36;100.00;100596.75;4920932;29;20094;-75
2022/02/04 06:48:13;;;;;;;63.72;33.38;;;;;;;5.36;100.00;100607.16;4946667;28;20035;-75
2022/02/04 06:50:39;;;;;;;57.45;32.15;;;;;;;5.31;100.00;100591.06;4925698;29;20043;-74
2022/02/04 06:53:05;;;;;;;60.63;33.70;;;;;;;5.40;100.00;100595.56;4924072;29;20409;-75
2022/02/04 06:55:32;;;;;;;59.75;32.42;;;;;;;5.36;100.00;100588.13;4921918;29;20067;-75
2022/02/04 06:57:58;;;;;;;60.05;33.13;;;;;;;5.45;100.00;100590.84;4903943;29;20055;-74
2022/02/04 07:00:27;;;;;;;54.45;30.77;;;;;;;5.46;100.00;100592.53;4917502;29;20059;-74
2022/02/04 07:02:53;;;;;;;62.58;32.35;;;;;;;5.42;100.00;100590.25;4940170;29;20039;-75
2022/02/04 07:05:21;;;;;;;57.00;32.25;;;;;;;5.45;100.00;100592.63;4920956;29;20036;-74
2022/02/04 07:08:11;;;;;;;57.28;32.95;;;;;;;5.52;100.00;100595.59;4938103;29;20116;-74
2022/02/04 07:16:27;;;;;;;56.45;31.95;;;;;;;5.52;100.00;100596.44;4935685;29;20540;-76
2022/02/04 07:21:41;;;;;;;59.28;33.22;;;;;;;5.47;100.00;100582.94;4928396;29;20054;-76
2022/02/04 07:24:07;;;;;;;59.67;33.47;;;;;;;5.47;100.00;100577.75;4916433;29;20036;-75
2022/02/04 07:26:33;;;;;;;56.33;31.55;;;;;;;5.57;100.00;100598.66;4922368;29;20053;-74
2022/02/04 07:28:59;;;;;;;58.72;32.78;;;;;;;5.52;100.00;100585.19;4935229;29;20047;-76
2022/02/04 07:31:31;;;;;;;56.90;33.72;;;;;;;5.56;100.00;100587.44;4916122;29;20102;-76
2022/02/04 07:34:17;;;;;;;55.08;33.53;;;;;;;5.64;100.00;100579.88;4951632;28;20059;-74
2022/02/04 07:42:00;;;;;;;59.70;33.53;;;;;;;5.64;100.00;100579.03;4924175;29;20043;-75
2022/02/04 07:44:27;;;;;;;58.22;32.35;;;;;;;5.65;100.00;100578.09;4931088;29;20050;-75
2022/02/04 07:46:52;;;;;;;61.70;34.47;;;;;;;5.69;100.00;100571.72;4926578;29;20048;-76
2022/02/04 07:49:18;;;;;;;61.05;34.65;;;;;;;5.64;100.00;100564.25;4955327;28;20046;-75
2022/02/04 07:51:44;;;;;;;62.13;35.08;;;;;;;5.70;100.00;100564.72;4931570;29;20376;-74
2022/02/04 07:54:10;;;;;;;61.15;34.85;;;;;;;5.70;100.00;100564.72;4939391;29;20047;-75
2022/02/04 07:56:36;;;;;;;59.40;34.70;;;;;;;5.71;100.00;100561.16;4956796;28;20039;-74
2022/02/04 07:59:08;;;;;;;61.50;34.47;;;;;;;5.67;100.00;100555.41;4928565;29;20043;-76
2022/02/04 08:01:34;;;;;;;58.20;35.03;;;;;;;5.73;100.00;100559.31;4935988;29;20043;-75
2022/02/04 08:06:34;;;;;;;59.70;34.38;;;;;;;5.74;100.00;100559.16;4941476;29;20028;-74
2022/02/04 08:09:09;;;;;;;57.22;33.58;;;;;;;5.74;100.00;100548.75;4926435;29;20043;-75
2022/02/04 08:11:53;;;;;;;57.30;34.28;;;;;;;5.79;100.00;100549.22;4920064;29;20035;-74
2022/02/04 08:14:41;;;;;;;61.67;34.58;;;;;;;5.77;100.00;100543.31;4944011;28;20495;-75
2022/02/04 08:22:53;;;;;;;59.08;33.60;;;;;;;5.84;100.00;100536.69;4919379;29;20043;-74
2022/02/04 08:27:58;;;;;;;56.38;34.15;;;;;;;5.89;100.00;100535.47;4942996;29;20533;-74
2022/02/04 08:33:18;;;;;;;59.95;33.90;;;;;;;5.92;100.00;100537.84;4934719;29;20404;-75
2022/02/04 08:38:38;;;;;;;56.55;32.80;;;;;;;5.96;100.00;100534.91;4945968;29;20106;-76
2022/02/04 08:47:00;;;;;;;53.13;31.90;;;;;;;5.97;100.00;100536.56;4931896;29;20510;-75
2022/02/04 08:49:52;;;;;;;54.72;32.35;;;;;;;6.00;100.00;100538.91;4937302;29;20119;-76
2022/02/04 08:57:42;;;;;;;54.80;31.50;;;;;;;6.15;100.00;100520.44;4926623;29;20044;-75
2022/02/04 09:00:23;;;;;;;48.08;30.95;;;;;;;6.12;100.00;100510.25;4942829;28;20036;-76
2022/02/04 09:03:03;;;;;;;48.58;30.73;;;;;;;6.18;100.00;100521.00;4911843;29;20114;-75
2022/02/04 09:05:40;;;;;;;50.47;30.92;;;;;;;6.21;100.00;100510.31;4930927;28;20047;-75
2022/02/04 09:08:23;;;;;;;51.25;30.58;;;;;;;6.22;100.00;100514.59;4921368;29;20040;-75
2022/02/04 09:10:51;;;;;;;47.05;29.58;;;;;;;6.23;100.00;100510.22;4939898;29;20043;-74
2022/02/04 09:18:59;;;;;;;48.92;30.13;;;;;;;6.37;100.00;100502.09;4929040;29;20055;-76
2022/02/04 09:21:37;;;;;;;44.75;27.48;;;;;;;6.45;100.00;100503.28;4916258;29;20031;-74
2022/02/04 09:24:03;;;;;;;45.10;28.05;;;;;;;6.47;100.00;100498.75;4931300;29;20064;-76
2022/02/04 09:26:28;;;;;;;43.05;28.70;;;;;;;6.49;100.00;100496.84;4937326;29;20086;-74
2022/02/04 09:28:54;;;;;;;42.95;27.38;;;;;;;6.54;100.00;100486.88;4923716;29;20489;-74
2022/02/04 09:31:20;;;;;;;37.50;26.15;;;;;;;6.56;100.00;100488.41;4929656;29;20042;-75
2022/02/04 09:33:45;;;;;;;42.08;26.30;;;;;;;6.55;100.00;100486.72;4940897;29;20035;-75
2022/02/04 09:36:10;;;;;;;41.47;27.77;;;;;;;6.51;100.00;100480.13;4915893;29;20050;-75
2022/02/04 09:38:36;;;;;;;40.72;26.48;;;;;;;6.52;100.00;100473.97;4940991;29;20574;-75
2022/02/04 09:41:02;;;;;;;40.50;27.52;;;;;;;6.55;100.00;100478.91;4938867;29;20309;-76
2022/02/04 09:43:28;;;;;;;39.83;27.30;;;;;;;6.57;100.00;100477.03;4937252;29;20087;-75
2022/02/04 09:45:54;;;;;;;41.20;26.83;;;;;;;6.62;100.00;100474.84;4919336;29;20040;-74
2022/02/04 09:48:20;;;;;;;39.53;26.55;;;;;;;6.67;100.00;100479.69;4937979;29;20028;-74
2022/02/04 09:50:49;;;;;;;43.22;26.73;;;;;;;6.67;100.00;100474.47;4926433;29;20039;-75
2022/02/04 10:07:26;;;;;;;39.63;25.02;;;;;;;6.80;100.00;100462.06;4931648;29;20046;-76
2022/02/04 10:18:10;;;;;;;35.58;24.27;;;;;;;6.84;100.00;100433.97;4924959;29;20035;-75
2022/02/04 10:20:39;;;;;;;35.20;23.55;;;;;;;6.87;100.00;100443.31;4912775;29;20047;-76
2022/02/04 10:23:04;;;;;;;34.80;23.85;;;;;;;6.79;100.00;100415.28;4936451;29;20511;-75
2022/02/04 10:25:32;;;;;;;32.10;23.63;;;;;;;6.90;100.00;100435.22;4930046;29;20128;-76
2022/02/04 10:28:03;;;;;;;35.13;23.58;;;;;;;6.98;100.00;100423.16;4921604;29;20032;-76
2022/02/04 10:30:31;;;;;;;37.28;22.95;;;;;;;7.00;100.00;100415.22;4911837;29;20059;-75
2022/02/04 10:32:59;;;;;;;32.67;21.67;;;;;;;7.08;100.00;100418.00;4936515;29;20038;-76
2022/02/04 10:35:34;;;;;;;36.03;24.00;;;;;;;7.10;100.00;100410.88;4934129;29;20035;-75
2022/02/04 10:41:05;;;;;;;34.45;23.20;;;;;;;7.24;100.00;100404.47;4923286;29;20466;-75
2022/02/04 10:46:26;;;;;;;29.48;21.98;;;;;;;7.27;100.00;100390.31;4947949;29;20525;-75
2022/02/04 10:49:35;;;;;;;30.15;21.50;;;;;;;7.26;100.00;100393.91;4916252;29;20979;-75
2022/02/04 10:52:29;;;;;;;28.88;20.85;;;;;;;7.29;100.00;100385.78;4921363;29;20050;-75
2022/02/04 10:58:06;;;;;;;33.03;21.42;;;;;;;7.29;100.00;100377.97;4936510;29;20047;-75
2022/02/04 11:01:37;;;;;;;28.90;20.17;;;;;;;7.32;100.00;100375.09;4920880;29;20040;-75
2022/02/04 11:03:28;;;;;;;29.73;19.42;;;;;;;7.36;100.00;100355.59;4925619;29;20060;-76
2022/02/04 11:06:10;;;;;;;25.90;19.00;;;;;;;7.41;100.00;100348.19;4916440;29;20040;-75
2022/02/04 11:08:56;;;;;;;27.58;19.42;;;;;;;7.35;100.00;100333.91;4927662;29;20032;-75
2022/02/04 11:35:56;;;;;;;19.25;14.48;;;;;;;8.10;100.00;100308.06;4936344;29;20101;-75
2022/02/04 11:52:28;;;;;;;18.38;12.45;;;;;;;8.13;100.00;100280.81;4940623;29;20070;-75
2022/02/04 11:54:56;;;;;;;17.02;12.70;;;;;;;8.16;100.00;100273.50;4942013;29;20120;-74
2022/02/04 11:57:34;;;;;;;16.73;13.13;;;;;;;8.32;100.00;100265.06;4920109;29;20065;-75
2022/02/04 12:00:03;;;;;;;17.25;11.43;;;;;;;8.33;100.00;100260.69;4919722;29;20042;-75
2022/02/04 12:02:36;;;;;;;17.95;12.25;;;;;;;8.30;100.00;100251.31;4921309;29;20031;-76
2022/02/04 12:05:08;;;;;;;17.00;12.07;;;;;;;8.35;100.00;100254.31;4933477;29;20054;-73
2022/02/04 12:07:40;;;;;;;16.33;11.77;;;;;;;8.39;100.00;100255.69;4946006;29;20058;-75
2022/02/04 12:10:19;;;;;;;15.10;10.77;;;;;;;8.51;100.00;100250.28;4953952;28;20031;-75
2022/02/04 12:12:54;;;;;;;18.88;11.32;;;;;;;8.73;100.00;100246.47;4918353;29;20483;-75
2022/02/04 12:15:32;;;;;;;13.90;9.70;;;;;;;8.71;100.00;100256.25;4951375;28;20035;-74
2022/02/04 12:18:07;;;;;;;13.90;10.25;;;;;;;8.70;100.00;100247.59;4954700;28;20035;-74
2022/02/04 12:23:26;;;;;;;12.52;10.30;;;;;;;8.63;100.00;100235.25;4955822;28;20035;-74
2022/02/04 12:26:04;;;;;;;15.35;10.10;;;;;;;8.57;100.00;100228.81;4956355;28;20043;-76
2022/02/04 12:28:52;;;;;;;13.23;10.10;;;;;;;8.42;100.00;100225.03;4932009;29;20043;-76
2022/02/04 12:31:30;;;;;;;13.70;9.60;;;;;;;8.43;100.00;100211.00;4926800;29;20067;-75
2022/02/04 12:34:05;;;;;;;10.95;9.10;;;;;;;8.33;100.00;100206.63;4933311;29;20059;-74
2022/02/04 12:36:45;;;;;;;12.95;9.50;;;;;;;8.33;100.00;100204.00;4929605;29;20042;-75
2022/02/04 12:39:11;;;;;;;13.40;8.65;;;;;;;8.22;100.00;100200.75;4923066;29;20485;-74
2022/02/04 12:41:42;;;;;;;13.38;8.55;;;;;;;8.08;100.00;100194.19;4935119;29;20042;-74
2022/02/04 12:44:14;;;;;;;12.25;8.13;;;;;;;8.02;100.00;100198.22;4952506;28;20725;-74
2022/02/04 12:46:43;;;;;;;11.48;8.15;;;;;;;7.92;100.00;100194.81;4952118;29;20114;-74
2022/02/04 12:49:10;;;;;;;15.30;8.65;;;;;;;7.85;100.00;100194.56;4926321;29;20497;-74
2022/02/04 12:54:42;;;;;;;12.77;8.05;;;;;;;7.75;100.00;100183.34;4951330;29;20046;-75
2022/02/04 13:00:22;;;;;;;16.70;8.32;;;;;;;7.69;100.00;100163.84;4936624;29;20054;-74
2022/02/04 13:03:17;;;;;;;14.73;8.85;;;;;;;7.73;100.00;100167.00;4950138;28;20040;-74
2022/02/04 13:08:41;;;;;;;12.88;7.63;;;;;;;7.69;100.00;100157.81;4947991;28;20034;-74
2022/02/04 13:11:17;;;;;;;9.27;6.78;;;;;;;7.68;100.00;100156.13;4952706;28;20490;-75
2022/02/04 13:13:49;;;;;;;10.30;5.93;;;;;;;7.65;100.00;100146.81;4953048;28;20121;-74
2022/02/04 13:16:23;;;;;;;9.63;6.72;;;;;;;7.65;100.00;100146.81;4954080;28;20042;-74
2022/02/04 13:18:50;;;;;;;10.45;6.75;;;;;;;7.64;100.00;100139.94;4921050;29;20387;-74
2022/02/04 13:21:16;;;;;;;9.20;6.55;;;;;;;7.63;100.00;100134.84;4951825;28;20371;-74
2022/02/04 13:23:42;;;;;;;10.63;6.50;;;;;;;7.63;100.00;100135.69;4933057;29;20189;-76
2022/02/04 13:26:08;;;;;;;10.85;6.00;;;;;;;7.64;100.00;100142.53;4940079;28;20049;-74
2022/02/04 13:28:41;;;;;;;9.13;5.68;;;;;;;7.60;100.00;100128.13;4952139;28;20413;-74
2022/02/04 13:31:11;;;;;;;8.77;5.70;;;;;;;7.59;100.00;100119.50;4937098;28;20122;-74
2022/02/04 13:33:41;;;;;;;9.48;6.10;;;;;;;7.59;100.00;100127.31;4936152;29;20060;-73
2022/02/04 13:36:30;;;;;;;8.05;5.28;;;;;;;7.63;100.00;100103.53;4935383;29;20518;-74
2022/02/04 13:42:24;;;;;;;6.30;4.43;;;;;;;7.63;100.00;100103.53;4952438;28;20126;-74
2022/02/04 13:44:39;;;;;;;10.32;4.55;;;;;;;7.66;100.00;100106.69;4944972;29;20136;-74
2022/02/04 13:52:53;;;;;;;6.40;4.43;;;;;;;7.65;100.00;100098.97;4946672;29;20485;-74
2022/02/04 14:03:41;;;;;;;10.20;3.55;;;;;;;7.56;100.00;100080.63;4947096;29;20035;-74
2022/02/04 14:06:13;;;;;;;6.55;4.15;;;;;;;7.53;100.00;100074.88;4951666;28;20122;-75
2022/02/04 14:08:57;;;;;;;4.28;3.20;;;;;;;7.61;100.00;100061.94;4936855;29;20035;-74
2022/02/04 14:11:37;;;;;;;6.63;3.10;;;;;;;7.59;100.00;100064.69;4950335;28;20150;-74
2022/02/04 14:14:20;;;;;;;6.63;3.47;;;;;;;7.60;100.00;100068.91;4937298;28;20038;-74
2022/02/04 14:17:00;;;;;;;5.78;3.08;;;;;;;7.63;100.00;100054.78;4944978;28;20049;-75
2022/02/04 14:19:28;;;;;;;6.28;3.38;;;;;;;7.64;100.00;100052.97;4929544;29;20126;-74
2022/02/04 14:21:54;;;;;;;4.68;2.88;;;;;;;7.67;100.00;100047.50;4950747;29;20039;-74
2022/02/04 14:24:21;;;;;;;4.95;3.00;;;;;;;7.65;100.00;100044.16;4934309;29;20183;-74
2022/02/04 14:26:50;;;;;;;3.85;3.03;;;;;;;7.68;100.00;100039.50;4923479;28;20112;-74
2022/02/04 14:29:27;;;;;;;6.07;3.08;;;;;;;7.68;100.00;100041.28;4964561;28;20087;-74
2022/02/04 14:37:00;;;;;;;4.90;3.25;;;;;;;7.64;100.00;100027.69;4954642;28;20170;-76
2022/02/04 14:58:43;;;;;;;4.20;3.58;;;;;;;7.52;100.00;100021.84;4956527;28;20027;-75
2022/02/04 15:01:21;;;;;;;5.13;3.53;;;;;;;7.54;100.00;100011.28;4960880;28;20121;-75
2022/02/04 15:06:36;;;;;;;4.05;3.65;;;;;;;7.51;100.00;100006.34;4955965;28;20098;-75
2022/02/04 15:09:09;;;;;;;5.95;3.72;;;;;;;7.50;100.00;99995.09;4955024;28;20035;-75
2022/02/04 15:11:40;;;;;;;4.47;3.25;;;;;;;7.49;100.00;99996.03;4949410;28;20042;-75
2022/02/04 15:14:08;;;;;;;4.43;3.63;;;;;;;7.44;100.00;99984.38;4945614;28;20460;-75
2022/02/04 15:16:34;;;;;;;4.63;3.60;;;;;;;7.43;100.00;99973.13;4949809;29;20193;-75
2022/02/04 15:19:01;;;;;;;5.00;3.35;;;;;;;7.41;100.00;99957.63;4926415;29;20036;-75
2022/02/04 15:21:27;;;;;;;5.53;2.92;;;;;;;7.38;100.00;99968.38;4925659;29;20122;-75
2022/02/04 15:23:54;;;;;;;3.45;3.15;;;;;;;7.32;100.00;99953.28;4952357;29;20630;-75
2022/02/04 15:26:26;;;;;;;5.78;3.85;;;;;;;7.29;100.00;99958.78;4954557;28;20035;-75
2022/02/04 15:29:02;;;;;;;4.10;3.70;;;;;;;7.24;100.00;99927.09;4956480;28;20047;-75
2022/02/04 15:31:47;;;;;;;4.35;3.95;;;;;;;7.20;100.00;99937.00;4941925;29;20078;-75
2022/02/04 15:34:14;;;;;;;4.50;3.63;;;;;;;7.17;100.00;99932.06;4951970;29;20041;-75
2022/02/04 15:36:44;;;;;;;4.13;3.72;;;;;;;7.17;100.00;99942.50;4941096;29;20043;-75
2022/02/04 15:39:13;;;;;;;3.35;3.10;;;;;;;7.18;100.00;99935.50;4952565;28;20026;-75
2022/02/04 15:41:39;;;;;;;3.30;3.05;;;;;;;7.17;100.00;99926.03;4934209;29;20047;-74
2022/02/04 15:44:16;;;;;;;3.13;2.83;;;;;;;7.14;100.00;99921.09;4950405;29;20039;-75
2022/02/04 15:52:24;;;;;;;3.03;2.83;;;;;;;7.09;100.00;99903.28;4953959;29;20506;-75
2022/02/04 16:02:34;;;;;;;5.10;3.90;;;;;;;7.02;100.00;99883.97;4953034;28;20463;-74
2022/02/04 16:05:00;;;;;;;5.03;3.38;;;;;;;6.98;100.00;99885.22;4950967;28;20039;-74
2022/02/04 16:07:26;;;;;;;6.38;3.88;;;;;;;6.94;100.00;99883.88;4953318;28;20592;-74
2022/02/04 16:10:18;;;;;;;5.18;4.35;;;;;;;6.92;100.00;99865.75;4936077;29;20043;-74
2022/02/04 16:18:05;;;;;;;6.63;5.05;;;;;;;6.72;100.00;99858.97;4952205;28;20035;-74
2022/02/04 16:20:58;;;;;;;6.45;5.43;;;;;;;6.69;100.00;99854.88;4951369;28;20066;-74
2022/02/04 16:23:31;;;;;;;8.30;5.40;;;;;;;6.62;100.00;99849.41;4953610;28;20031;-75
2022/02/04 16:26:21;;;;;;;6.60;5.90;;;;;;;6.66;100.00;99846.53;4937568;28;20138;-74
2022/02/04 16:28:42;;;;;;;8.07;5.82;;;;;;;6.63;100.00;99845.84;4950583;28;20041;-75
2022/02/04 16:31:11;;;;;;;6.78;5.78;;;;;;;6.65;100.00;99840.50;4934355;29;20047;-75
2022/02/04 16:33:37;;;;;;;6.50;5.32;;;;;;;6.62;100.00;99830.34;4937911;29;20039;-75
2022/02/04 16:36:11;;;;;;;5.88;5.30;;;;;;;6.66;100.00;99836.91;4966579;28;20509;-75
2022/02/04 16:38:37;;;;;;;5.60;5.10;;;;;;;6.65;100.00;99839.66;4943019;29;20646;-74
2022/02/04 16:41:07;;;;;;;5.68;5.10;;;;;;;6.66;100.00;99830.91;4939350;29;20569;-75
2022/02/04 16:43:35;;;;;;;5.53;4.90;;;;;;;6.63;100.00;99832.00;4944046;29;20042;-75
2022/02/04 16:46:06;;;;;;;4.72;4.30;;;;;;;6.61;100.00;99833.91;4952491;28;20027;-75
2022/02/04 16:48:32;;;;;;;5.72;4.07;;;;;;;6.59;100.00;99830.63;4947627;28;20051;-75
2022/02/04 16:50:58;;;;;;;3.80;3.15;;;;;;;6.65;100.00;99824.03;4951310;28;20038;-75
2022/02/04 16:53:24;;;;;;;3.70;3.40;;;;;;;6.68;100.00;99823.75;4952982;28;20035;-75
2022/02/04 16:55:50;;;;;;;4.13;3.72;;;;;;;6.63;100.00;99814.59;4952236;28;20077;-74
2022/02/04 16:58:15;;;;;;;3.90;2.53;;;;;;;6.66;100.00;99810.03;4954607;28;20493;-75
2022/02/04 17:00:41;;;;;;;7.38;2.72;;;;;;;6.65;100.00;99814.44;4935166;29;20038;-75
2022/02/04 17:03:09;;;;;;;4.97;2.80;;;;;;;6.58;100.00;99811.59;4951315;28;20035;-75
2022/02/04 17:05:51;;;;;;;3.35;2.83;;;;;;;6.67;100.00;99822.09;4933025;29;20521;-76
2022/02/04 17:08:32;;;;;;;3.85;2.90;;;;;;;6.62;100.00;99812.94;4959699;28;20069;-75
2022/02/04 17:11:01;;;;;;;4.57;3.00;;;;;;;6.58;100.00;99823.78;4942541;28;20032;-76
2022/02/04 17:13:28;;;;;;;7.25;3.40;;;;;;;6.58;100.00;99823.78;4929595;29;20039;-75
2022/02/04 17:15:53;;;;;;;4.32;3.45;;;;;;;6.60;100.00;99829.69;4967419;28;20125;-75
2022/02/04 17:18:19;;;;;;;6.38;3.80;;;;;;;6.50;100.00;99814.09;4953546;28;20111;-74
2022/02/04 17:20:45;;;;;;;5.18;3.65;;;;;;;6.40;100.00;99821.09;4949464;28;20391;-75
2022/02/04 17:23:12;;;;;;;6.60;4.43;;;;;;;6.35;100.00;99831.16;4930607;28;20439;-74
2022/02/04 17:25:39;;;;;;;7.55;4.85;;;;;;;6.29;100.00;99835.13;4932138;29;20063;-74
2022/02/04 17:28:05;;;;;;;7.13;5.07;;;;;;;6.20;100.00;99849.00;4967525;28;20035;-75